createdAt,value
2018-07-11T00:00:59.213Z,11.47
2018-07-11T00:03:33.009Z,9.67
2018-07-11T00:06:02.375Z,9.43
2018-07-11T00:08:31.061Z,8.97
2018-07-11T00:10:59.573Z,9.10
2018-07-11T00:13:28.199Z,9.70
2018-07-11T00:15:57.081Z,10.13
2018-07-11T00:18:26.043Z,9.50
2018-07-11T00:20:54.530Z,9.40
2018-07-11T00:23:23.314Z,10.57
2018-07-11T00:25:52.213Z,10.63
2018-07-11T00:28:20.991Z,10.27
2018-07-11T00:30:49.988Z,11.17
2018-07-11T00:33:18.671Z,9.40
2018-07-11T00:35:48.569Z,10.00
2018-07-11T00:38:17.200Z,10.23
2018-07-11T00:40:45.792Z,9.30
2018-07-11T00:43:14.243Z,10.60
2018-07-11T00:45:43.011Z,10.13
2018-07-11T00:48:11.626Z,10.83
2018-07-11T00:50:40.114Z,10.63
2018-07-11T00:53:08.711Z,9.83
2018-07-11T00:55:37.782Z,11.00
2018-07-11T00:58:45.117Z,10.33
2018-07-11T01:01:14.907Z,9.67
2018-07-11T01:03:49.881Z,11.50
2018-07-11T01:06:18.949Z,10.40
2018-07-11T01:08:49.598Z,10.17
2018-07-11T01:11:18.535Z,11.00
2018-07-11T01:13:48.808Z,10.30
2018-07-11T01:16:18.509Z,9.93
2018-07-11T01:18:55.473Z,10.23
2018-07-11T01:21:24.161Z,10.20
2018-07-11T01:23:52.617Z,10.23
2018-07-11T01:26:26.391Z,10.17
2018-07-11T01:28:54.949Z,9.27
2018-07-11T01:31:24.602Z,9.17
2018-07-11T01:33:53.794Z,9.40
2018-07-11T01:36:22.911Z,9.50
2018-07-11T01:38:51.112Z,9.17
2018-07-11T01:41:19.644Z,8.97
2018-07-11T01:43:48.648Z,9.93
2018-07-11T01:46:17.385Z,9.17
2018-07-11T01:48:46.273Z,9.00
2018-07-11T01:51:15.195Z,8.17
2018-07-11T01:53:43.808Z,8.70
2018-07-11T01:56:12.456Z,8.20
2018-07-11T01:58:44.103Z,8.80
2018-07-11T02:01:12.853Z,8.67
2018-07-11T02:03:41.380Z,8.93
2018-07-11T02:06:10.018Z,9.83
2018-07-11T02:08:38.716Z,8.73
2018-07-11T02:11:07.485Z,9.00
2018-07-11T02:13:36.732Z,9.30
2018-07-11T02:16:05.399Z,8.57
2018-07-11T02:18:35.880Z,9.37
2018-07-11T02:21:05.798Z,9.17
2018-07-11T02:23:36.256Z,8.83
2018-07-11T02:26:04.849Z,9.80
2018-07-11T02:28:33.387Z,8.77
2018-07-11T02:31:02.105Z,9.67
2018-07-11T02:33:30.545Z,10.07
2018-07-11T02:35:59.145Z,10.30
2018-07-11T02:38:27.984Z,9.93
2018-07-11T02:40:56.545Z,10.53
2018-07-11T02:43:25.121Z,11.30
2018-07-11T02:45:53.668Z,12.43
2018-07-11T02:48:21.839Z,10.90
2018-07-11T02:50:50.516Z,11.90
2018-07-11T02:53:20.052Z,11.93
2018-07-11T02:55:49.544Z,11.70
2018-07-11T02:58:18.318Z,12.37
2018-07-11T03:00:47.107Z,13.53
2018-07-11T03:03:15.855Z,12.40
2018-07-11T03:05:44.326Z,11.93
2018-07-11T03:08:13.697Z,13.27
2018-07-11T03:10:41.926Z,13.23
2018-07-11T03:13:10.365Z,12.37
2018-07-11T03:15:38.854Z,13.93
2018-07-11T03:18:07.631Z,12.90
2018-07-11T03:20:36.253Z,12.23
2018-07-11T03:23:04.850Z,12.57
2018-07-11T03:25:33.676Z,11.57
2018-07-11T03:28:02.134Z,12.80
2018-07-11T03:30:30.621Z,12.20
2018-07-11T03:32:59.275Z,12.57
2018-07-11T03:35:27.960Z,13.00
2018-07-11T03:37:56.599Z,12.30
2018-07-11T03:40:25.599Z,12.10
2018-07-11T03:42:54.328Z,12.07
2018-07-11T03:45:22.764Z,12.93
2018-07-11T03:47:50.967Z,14.30
2018-07-11T03:50:19.404Z,15.43
2018-07-11T03:52:48.382Z,14.00
2018-07-11T03:55:16.549Z,12.57
2018-07-11T03:57:45.044Z,14.10
2018-07-11T04:00:13.531Z,12.17
2018-07-11T04:02:42.355Z,12.47
2018-07-11T04:05:11.056Z,12.83
2018-07-11T04:07:39.551Z,14.50
2018-07-11T04:10:08.591Z,13.93
2018-07-11T04:12:37.054Z,14.47
2018-07-11T04:15:05.609Z,14.10
2018-07-11T04:17:34.501Z,13.47
2018-07-11T04:20:03.456Z,13.93
2018-07-11T04:22:32.085Z,13.73
2018-07-11T04:25:00.837Z,12.87
2018-07-11T04:27:29.512Z,12.73
2018-07-11T04:29:58.277Z,12.70
2018-07-11T04:32:26.653Z,12.97
2018-07-11T04:34:55.678Z,12.83
2018-07-11T04:37:24.127Z,11.47
2018-07-11T04:39:52.570Z,10.70
2018-07-11T04:42:21.668Z,10.67
2018-07-11T04:44:50.365Z,10.70
2018-07-11T04:47:19.060Z,10.83
2018-07-11T04:49:47.712Z,10.60
2018-07-11T04:52:16.300Z,10.83
2018-07-11T04:54:45.129Z,10.53
2018-07-11T04:57:13.736Z,9.77
2018-07-11T04:59:42.261Z,9.97
2018-07-11T05:02:11.050Z,11.47
2018-07-11T05:04:39.793Z,10.27
2018-07-11T05:07:09.256Z,10.87
2018-07-11T05:09:38.213Z,9.80
2018-07-11T05:12:06.617Z,10.00
2018-07-11T05:14:35.389Z,9.67
2018-07-11T05:17:03.878Z,10.43
2018-07-11T05:19:32.509Z,9.97
2018-07-11T05:22:01.240Z,9.87
2018-07-11T05:24:29.727Z,10.47
2018-07-11T05:26:58.216Z,10.50
2018-07-11T05:29:26.724Z,10.47
2018-07-11T05:31:55.717Z,10.93
2018-07-11T05:34:23.979Z,10.40
2018-07-11T05:36:52.447Z,10.97
2018-07-11T05:39:21.132Z,10.70
2018-07-11T05:41:50.260Z,10.07
2018-07-11T05:44:19.503Z,9.83
2018-07-11T05:46:49.572Z,8.30
2018-07-11T05:49:18.052Z,9.10
2018-07-11T05:51:47.466Z,9.00
2018-07-11T05:54:16.088Z,9.53
2018-07-11T05:56:45.421Z,8.83
2018-07-11T05:59:15.277Z,8.90
2018-07-11T06:02:05.470Z,8.73
2018-07-11T06:05:02.502Z,8.67
2018-07-11T06:08:02.387Z,7.10
2018-07-11T06:10:35.354Z,6.73
2018-07-11T06:13:04.346Z,7.27
2018-07-11T06:15:33.323Z,6.30
2018-07-11T06:18:02.504Z,5.53
2018-07-11T06:20:46.225Z,5.67
2018-07-11T06:23:30.823Z,5.93
2018-07-11T06:26:00.291Z,4.60
2018-07-11T06:28:30.233Z,4.17
2018-07-11T06:30:59.522Z,4.43
2018-07-11T06:33:29.126Z,4.00
2018-07-11T06:35:58.425Z,4.30
2018-07-11T06:38:27.639Z,3.77
2018-07-11T06:40:57.045Z,4.47
2018-07-11T06:43:26.137Z,3.30
2018-07-11T06:45:55.171Z,3.70
2018-07-11T06:48:24.230Z,3.20
2018-07-11T06:50:53.464Z,3.57
2018-07-11T06:53:22.572Z,3.50
2018-07-11T06:55:51.682Z,2.97
2018-07-11T06:58:21.056Z,2.93
2018-07-11T07:00:50.740Z,2.90
2018-07-11T07:03:19.880Z,3.50
2018-07-11T07:05:48.712Z,3.33
2018-07-11T07:08:17.665Z,3.57
2018-07-11T07:10:48.359Z,3.53
2018-07-11T07:13:17.482Z,3.27
2018-07-11T07:15:46.688Z,2.73
2018-07-11T07:18:15.476Z,2.93
2018-07-11T07:20:45.663Z,3.03
2018-07-11T07:23:14.941Z,2.73
2018-07-11T07:25:44.121Z,3.30
2018-07-11T07:28:13.120Z,2.90
2018-07-11T07:30:41.991Z,3.47
2018-07-11T07:33:10.856Z,3.40
2018-07-11T07:35:39.710Z,3.37
2018-07-11T07:38:08.906Z,3.20
2018-07-11T07:40:37.969Z,3.03
2018-07-11T07:43:06.875Z,3.23
2018-07-11T07:45:36.048Z,3.17
2018-07-11T07:48:05.640Z,3.23
2018-07-11T07:50:34.630Z,2.70
2018-07-11T07:53:03.892Z,2.50
2018-07-11T07:55:33.328Z,2.40
2018-07-11T07:58:02.490Z,2.60
2018-07-11T08:00:31.171Z,2.17
2018-07-11T08:03:00.588Z,2.03
2018-07-11T08:05:29.339Z,2.70
2018-07-11T08:07:58.575Z,2.83
2018-07-11T08:10:27.542Z,3.00
2018-07-11T08:12:56.046Z,2.50
2018-07-11T08:15:25.478Z,2.10
2018-07-11T08:17:54.555Z,1.90
2018-07-11T08:20:23.617Z,2.20
2018-07-11T08:23:06.692Z,2.27
2018-07-11T08:25:46.888Z,2.10
2018-07-11T08:28:26.720Z,1.70
2018-07-11T08:31:06.930Z,2.43
2018-07-11T08:36:03.494Z,1.53
2018-07-11T08:38:46.420Z,1.50
2018-07-11T08:41:33.925Z,1.50
2018-07-11T08:44:16.354Z,1.20
2018-07-11T08:46:52.740Z,1.47
2018-07-11T08:51:39.354Z,1.30
2018-07-11T08:54:16.953Z,1.50
2018-07-11T08:56:53.368Z,1.83
2018-07-11T08:59:43.622Z,1.80
2018-07-11T09:04:33.401Z,1.80
2018-07-11T09:07:14.187Z,1.60
2018-07-11T09:10:55.733Z,2.17
2018-07-11T09:13:39.218Z,1.97
2018-07-11T09:16:42.345Z,1.70
2018-07-11T09:19:23.969Z,2.10
2018-07-11T09:22:18.725Z,1.80
2018-07-11T09:24:49.329Z,2.23
2018-07-11T09:27:18.415Z,2.10
2018-07-11T09:29:47.921Z,2.33
2018-07-11T09:32:16.999Z,1.97
2018-07-11T09:34:46.395Z,2.30
2018-07-11T09:37:15.706Z,2.00
2018-07-11T09:39:44.548Z,1.87
2018-07-11T09:42:14.007Z,1.93
2018-07-11T09:44:43.234Z,1.83
2018-07-11T09:47:18.053Z,2.00
2018-07-11T09:49:47.390Z,1.90
2018-07-11T09:52:16.591Z,2.07
2018-07-11T09:54:45.858Z,2.30
2018-07-11T09:57:14.722Z,2.00
2018-07-11T09:59:43.449Z,2.20
2018-07-11T10:02:12.472Z,2.20
2018-07-11T10:04:41.658Z,2.03
2018-07-11T10:07:10.799Z,1.80
2018-07-11T10:09:39.615Z,1.87
2018-07-11T10:12:08.391Z,2.30
2018-07-11T10:14:42.101Z,2.33
2018-07-11T10:17:12.055Z,2.13
2018-07-11T10:19:41.221Z,2.07
2018-07-11T10:22:09.691Z,1.87
2018-07-11T10:24:39.122Z,2.27
2018-07-11T10:27:08.093Z,1.83
2018-07-11T10:32:10.757Z,1.90
2018-07-11T10:34:39.550Z,1.90
2018-07-11T10:37:08.596Z,1.90
2018-07-11T10:39:37.667Z,1.80
2018-07-11T10:42:07.188Z,2.10
2018-07-11T10:44:36.165Z,2.10
2018-07-11T10:47:13.002Z,2.27
2018-07-11T10:49:43.498Z,1.60
2018-07-11T10:52:12.546Z,1.70
2018-07-11T10:54:42.053Z,1.80
2018-07-11T10:57:11.492Z,1.53
2018-07-11T10:59:41.002Z,1.77
2018-07-11T11:02:09.583Z,1.80
2018-07-11T11:04:38.739Z,1.90
2018-07-11T11:07:07.765Z,2.10
2018-07-11T11:09:37.538Z,2.00
2018-07-11T11:12:07.346Z,2.00
2018-07-11T11:14:37.927Z,2.13
2018-07-11T11:17:06.926Z,2.20
2018-07-11T11:19:36.501Z,2.80
2018-07-11T11:22:05.800Z,1.80
2018-07-11T11:24:36.201Z,2.13
2018-07-11T11:27:06.794Z,1.80
2018-07-11T11:29:36.087Z,1.83
2018-07-11T11:32:05.832Z,1.70
2018-07-11T11:34:34.981Z,2.10
2018-07-11T11:37:03.794Z,1.90
2018-07-11T11:39:33.008Z,2.30
2018-07-11T11:42:02.073Z,2.00
2018-07-11T11:44:30.926Z,1.77
2018-07-11T11:47:01.656Z,1.93
2018-07-11T11:49:31.429Z,2.33
2018-07-11T11:52:00.861Z,2.07
2018-07-11T11:54:30.361Z,2.03
2018-07-11T11:56:59.641Z,2.53
2018-07-11T11:59:28.670Z,2.40
2018-07-11T12:01:58.437Z,2.37
2018-07-11T12:04:27.863Z,1.70
2018-07-11T12:06:57.042Z,1.70
2018-07-11T12:09:25.870Z,1.57
2018-07-11T12:11:55.401Z,1.90
2018-07-11T12:14:24.726Z,2.10
2018-07-11T12:16:54.114Z,1.83
2018-07-11T12:19:23.229Z,1.70
2018-07-11T12:21:52.106Z,1.77
2018-07-11T12:24:21.128Z,1.90
2018-07-11T12:26:51.030Z,2.07
2018-07-11T12:29:20.189Z,1.93
2018-07-11T12:31:49.603Z,1.60
2018-07-11T12:34:18.861Z,2.10
2018-07-11T12:36:48.390Z,2.30
2018-07-11T12:39:17.508Z,2.20
2018-07-11T12:41:46.808Z,2.73
2018-07-11T12:44:19.049Z,2.33
2018-07-11T12:46:50.481Z,2.10
2018-07-11T12:49:20.769Z,2.43
2018-07-11T12:51:51.950Z,2.23
2018-07-11T12:54:23.047Z,2.17
2018-07-11T12:56:57.406Z,2.47
2018-07-11T12:59:27.780Z,2.20
2018-07-11T13:01:57.669Z,1.97
2018-07-11T13:17:28.377Z,1.77
2018-07-11T13:19:58.704Z,2.47
2018-07-11T13:22:30.287Z,2.10
2018-07-11T13:34:46.635Z,2.53
2018-07-11T13:47:07.751Z,2.50
2018-07-11T13:49:37.424Z,2.17
2018-07-11T13:52:07.160Z,2.10
2018-07-11T13:54:37.352Z,2.10
2018-07-11T13:57:06.693Z,2.23
2018-07-11T13:59:37.299Z,2.23
2018-07-11T14:15:08.177Z,2.00
2018-07-11T14:17:38.251Z,2.53
2018-07-11T14:20:10.859Z,1.97
2018-07-11T14:22:46.677Z,2.87
2018-07-11T14:35:03.426Z,2.13
2018-07-11T14:37:35.110Z,2.13
2018-07-11T14:40:05.821Z,1.90
2018-07-11T14:42:35.570Z,1.63
2018-07-11T14:45:05.575Z,2.20
2018-07-11T14:47:43.160Z,1.97
2018-07-11T15:03:08.959Z,2.03
2018-07-11T15:05:40.387Z,1.97
2018-07-11T15:08:09.557Z,1.97
2018-07-11T15:10:40.372Z,1.67
2018-07-11T15:13:11.143Z,1.50
2018-07-11T15:15:40.423Z,1.60
2018-07-11T15:31:05.569Z,1.80
2018-07-11T15:33:37.480Z,1.87
2018-07-11T15:36:07.332Z,2.27
2018-07-11T15:38:38.554Z,2.17
2018-07-11T15:41:11.824Z,2.40
2018-07-11T15:43:42.219Z,1.83
2018-07-11T15:46:12.434Z,2.47
2018-07-11T15:48:44.846Z,2.40
2018-07-11T16:10:53.248Z,2.80
2018-07-11T16:13:24.135Z,2.47
2018-07-11T16:15:57.177Z,2.57
2018-07-11T16:18:27.436Z,3.13
2018-07-11T16:20:57.300Z,2.93
2018-07-11T16:23:27.606Z,2.90
2018-07-11T16:25:59.360Z,3.67
2018-07-11T16:28:29.184Z,3.23
2018-07-11T16:44:01.101Z,4.27
2018-07-11T16:46:30.507Z,4.30
2018-07-11T16:48:59.890Z,4.23
2018-07-11T16:51:30.995Z,4.33
2018-07-11T16:54:01.873Z,4.00
2018-07-11T16:56:30.996Z,3.67
2018-07-11T16:59:01.928Z,5.20
2018-07-11T17:01:35.064Z,4.30
2018-07-11T17:04:07.776Z,4.70
2018-07-11T17:06:39.109Z,3.87
2018-07-11T17:09:09.777Z,4.40
2018-07-11T17:12:01.749Z,4.07
2018-07-11T17:14:32.422Z,4.00
2018-07-11T17:17:08.270Z,4.47
2018-07-11T17:19:46.421Z,4.57
2018-07-11T17:22:17.074Z,5.10
2018-07-11T17:24:49.311Z,4.13
2018-07-11T17:27:23.749Z,4.67
2018-07-11T17:29:56.985Z,4.43
2018-07-11T17:32:27.277Z,4.57
2018-07-11T17:34:56.974Z,4.33
2018-07-11T17:37:46.682Z,4.53
2018-07-11T17:40:17.507Z,4.23
2018-07-11T17:42:49.115Z,4.50
2018-07-11T17:58:20.252Z,3.90
2018-07-11T18:13:54.433Z,5.20
2018-07-11T18:29:22.125Z,4.50
2018-07-11T18:32:02.453Z,4.53
2018-07-11T18:34:45.720Z,5.80
2018-07-11T18:37:25.055Z,5.53
2018-07-11T18:40:05.449Z,5.37
2018-07-11T18:42:47.761Z,5.87
2018-07-11T18:47:28.213Z,5.03
2018-07-11T18:50:11.076Z,5.77
2018-07-11T18:52:53.841Z,5.10
2018-07-11T18:55:38.525Z,5.57
2018-07-11T18:58:33.420Z,5.77
2018-07-11T19:01:14.689Z,5.83
2018-07-11T19:03:57.483Z,5.90
2018-07-11T19:06:35.765Z,6.37
2018-07-11T19:09:12.233Z,6.30
2018-07-11T19:12:01.799Z,5.83
2018-07-11T19:14:39.277Z,6.63
2018-07-11T19:19:20.491Z,6.47
2018-07-11T19:22:00.935Z,6.50
2018-07-11T19:24:44.314Z,5.17
2018-07-11T19:27:22.930Z,6.10
2018-07-11T19:30:07.499Z,5.20
2018-07-11T19:32:49.209Z,5.70
2018-07-11T19:35:42.075Z,5.63
2018-07-11T19:38:32.627Z,5.77
2018-07-11T19:41:11.735Z,5.47
2018-07-11T19:53:35.432Z,6.03
2018-07-11T19:56:49.421Z,5.87
2018-07-11T20:12:37.343Z,5.80
2018-07-11T20:15:33.591Z,5.70
2018-07-11T20:18:08.356Z,6.53
2018-07-11T20:21:12.100Z,6.47
2018-07-11T20:27:12.416Z,5.63
2018-07-11T20:30:17.992Z,6.30
2018-07-11T20:33:22.249Z,7.00
2018-07-11T20:39:25.631Z,5.90
2018-07-11T20:42:31.491Z,6.77
2018-07-11T20:51:37.397Z,6.27
2018-07-11T20:54:32.412Z,6.93
2018-07-11T20:57:35.526Z,6.13
2018-07-11T21:03:33.095Z,6.33
2018-07-11T21:11:40.562Z,6.40
2018-07-11T21:14:37.920Z,6.77
2018-07-11T21:18:33.107Z,6.40
2018-07-11T21:21:28.121Z,6.07
2018-07-11T21:24:36.572Z,6.90
2018-07-11T21:27:38.678Z,7.17
2018-07-11T21:30:41.756Z,6.57
2018-07-11T21:33:43.227Z,6.87
2018-07-11T21:36:14.909Z,7.67
2018-07-11T21:38:48.038Z,7.53
2018-07-11T21:41:18.748Z,7.77
2018-07-11T21:43:48.628Z,8.67
2018-07-11T21:46:19.102Z,7.63
2018-07-11T21:48:49.587Z,8.40
2018-07-11T21:51:19.151Z,7.80
2018-07-11T21:53:50.078Z,8.03
2018-07-11T21:56:22.848Z,8.17
2018-07-11T21:58:53.267Z,9.00
2018-07-11T22:01:23.444Z,8.37
2018-07-11T22:03:53.856Z,8.47
2018-07-11T22:06:23.985Z,9.73
2018-07-11T22:08:54.427Z,8.20
2018-07-11T22:11:24.205Z,8.87
2018-07-11T22:13:53.715Z,8.97
2018-07-11T22:16:24.455Z,9.03
2018-07-11T22:18:56.702Z,8.90
2018-07-11T22:21:26.007Z,9.77
2018-07-11T22:23:53.674Z,9.97
2018-07-11T22:26:22.847Z,9.37
2018-07-11T22:28:50.606Z,9.13
2018-07-11T22:31:20.214Z,8.93
2018-07-11T22:33:48.705Z,9.13
2018-07-11T22:36:17.125Z,10.07
2018-07-11T22:38:45.292Z,9.83
2018-07-11T22:41:13.020Z,9.93
2018-07-11T22:43:40.839Z,8.83
2018-07-11T22:46:09.782Z,9.43
2018-07-11T22:48:37.645Z,9.80
2018-07-11T22:51:07.371Z,9.67
2018-07-11T22:53:37.338Z,10.17
2018-07-11T22:56:06.749Z,10.27
2018-07-11T22:58:36.618Z,9.93
2018-07-11T23:01:07.714Z,10.27
2018-07-11T23:03:36.163Z,10.53
2018-07-11T23:18:59.123Z,10.93
2018-07-11T23:21:26.884Z,11.00
2018-07-11T23:23:55.304Z,9.67
2018-07-11T23:26:25.784Z,8.83
2018-07-11T23:38:39.057Z,10.60
2018-07-11T23:41:06.619Z,10.63
2018-07-11T23:56:34.385Z,9.93
2018-07-11T23:59:02.047Z,9.07
